^^
Datos históricos de la estación: Murcia-Puente Tocinos
Diario Informe para Septiembre 5, 2019 Unidades:  Métrico    Ingés   Ambas
Diario Semanal Mensual Anual
  Máxima: Mínima: Promedio:
Temperatura: 20.6 °C 14.5 °C 18.6 °C
Punto de rocio: 11.5 °C 3.4 °C 6.4 °C
Humedad: 67.6% 32.9% 46%
Velocidad viento: 24.5km/h 4.7km/h 14.5km/h
Racha viento: 48.3km/h - -
Viento- - OSO
Presión: 1013.0 hPa 1005.4 hPa -
Precipitación: 0.3 mm    
 
 
Tabla de datos para Septiembre 5, 2019
Hora Temperatura Punto de rocio Presión Viento Velocidad viento Racha viento Humedad Intensidad lluvia(por hora) Nubes
00:04 20.4 °C 8 °C 1007.0 hPa SSO 13.4 km/h 27.4 km/h 45% 0.0 mm
00:09 20.3 °C 7.9 °C 1007.0 hPa SSO 13.7 km/h 24.1 km/h 45% 0.0 mm
00:14 20.2 °C 8 °C 1006.8 hPa SSO 12.5 km/h 25.1 km/h 45.3% 0.0 mm
00:19 20.2 °C 8.1 °C 1006.8 hPa SSO 12.2 km/h 25.9 km/h 46% 0.0 mm
00:24 20 °C 8 °C 1006.8 hPa SSO 13.4 km/h 22.5 km/h 46% 0.0 mm
00:29 19.9 °C 8.2 °C 1006.8 hPa SSO 13.7 km/h 25.9 km/h 47% 0.0 mm
00:34 19.9 °C 8.2 °C 1006.8 hPa SSO 13.1 km/h 25.7 km/h 47.1% 0.0 mm
00:39 19.9 °C 8.5 °C 1007.0 hPa SO 13 km/h 20.9 km/h 48% 0.0 mm
00:44 19.8 °C 8.5 °C 1007.0 hPa SO 11.5 km/h 20.9 km/h 48.2% 0.0 mm
00:49 19.6 °C 8.6 °C 1007.0 hPa SSO 11.1 km/h 20.4 km/h 49% 0.0 mm
00:54 19.6 °C 8.6 °C 1007.0 hPa SSO 11.1 km/h 20.9 km/h 49% 0.0 mm
00:59 19.6 °C 8.6 °C 1006.9 hPa SSO 11.1 km/h 19.3 km/h 49% 0.0 mm
01:04 19.7 °C 8.6 °C 1006.9 hPa SSO 11.1 km/h 19 km/h 49% 0.0 mm
01:09 19.7 °C 8.7 °C 1006.9 hPa SSO 11.1 km/h 19.3 km/h 49% 0.0 mm
01:14 19.7 °C 8.6 °C 1006.7 hPa SSO 11.1 km/h 22.5 km/h 48.8% 0.0 mm
01:19 19.8 °C 8.5 °C 1006.7 hPa SSO 11.1 km/h 22.5 km/h 48% 0.0 mm
01:24 19.8 °C 8.5 °C 1006.7 hPa SSO 11.1 km/h 16.7 km/h 48.2% 0.0 mm
01:29 19.7 °C 8.6 °C 1006.6 hPa SSO 11.1 km/h 16.1 km/h 48.6% 0.0 mm
01:34 19.8 °C 8.4 °C 1006.6 hPa SSO 9.8 km/h 18.5 km/h 48% 0.0 mm
01:39 19.9 °C 8.5 °C 1006.6 hPa SSO 9.5 km/h 19.3 km/h 48% 0.0 mm
01:44 19.9 °C 8.6 °C 1006.5 hPa Sur 10.8 km/h 22.2 km/h 48% 0.0 mm
01:49 19.8 °C 8.5 °C 1006.5 hPa SSO 11.1 km/h 22.5 km/h 48% 0.0 mm
01:54 19.7 °C 8.7 °C 1006.5 hPa SSO 10.2 km/h 17.7 km/h 48.8% 0.0 mm
01:59 19.7 °C 8.7 °C 1006.2 hPa SSO 10 km/h 14.5 km/h 49% 0.0 mm
02:04 19.6 °C 8.6 °C 1006.2 hPa SSO 7.5 km/h 11.1 km/h 49.1% 0.0 mm
02:09 19.4 °C 8.7 °C 1006.2 hPa SSO 6.9 km/h 16.7 km/h 50% 0.0 mm
02:14 19.4 °C 8.7 °C 1006.1 hPa SSO 7.5 km/h 20.4 km/h 50% 0.0 mm
02:19 19.3 °C 8.6 °C 1006.1 hPa SSO 7.6 km/h 22.2 km/h 50% 0.0 mm
02:24 19.3 °C 8.7 °C 1006.1 hPa SSO 11 km/h 22.5 km/h 50.2% 0.0 mm
02:29 19.2 °C 8.8 °C 1005.8 hPa SSO 11.9 km/h 20.9 km/h 51% 0.0 mm
02:34 19.2 °C 8.8 °C 1005.8 hPa SSO 12.2 km/h 24.1 km/h 51% 0.0 mm
02:39 19.2 °C 8.8 °C 1005.8 hPa SSO 12.2 km/h 24.1 km/h 51% 0.0 mm
02:44 19.2 °C 8.8 °C 1005.6 hPa SSO 14.3 km/h 24.1 km/h 51% 0.0 mm
02:49 19.1 °C 8.7 °C 1005.6 hPa SSO 14.8 km/h 25.9 km/h 51% 0.0 mm
02:54 19.2 °C 8.7 °C 1005.6 hPa SSO 14.2 km/h 25.7 km/h 50.7% 0.0 mm
02:59 19.3 °C 8.7 °C 1005.4 hPa SSO 14 km/h 25.9 km/h 50% 0.0 mm
03:04 19.5 °C 8.6 °C 1005.4 hPa SSO 15.3 km/h 25.9 km/h 49.5% 0.0 mm
03:09 19.7 °C 8.6 °C 1005.4 hPa SSO 15.6 km/h 25.9 km/h 48.6% 0.0 mm
03:14 19.9 °C 8.6 °C 1005.4 hPa SO 15 km/h 27 km/h 48% 0.0 mm
03:19 19.9 °C 8.6 °C 1005.4 hPa SO 14.8 km/h 27.8 km/h 48% 0.0 mm
03:24 19.9 °C 8.5 °C 1005.5 hPa SO 13.4 km/h 25.1 km/h 48% 0.0 mm
03:29 19.9 °C 8.6 °C 1005.5 hPa SO 13 km/h 25.9 km/h 48% 0.0 mm
03:34 19.9 °C 8.6 °C 1005.5 hPa OSO 13.5 km/h 25.7 km/h 48% 0.0 mm
03:39 19.9 °C 8.6 °C 1005.6 hPa OSO 13.7 km/h 24.1 km/h 48% 0.0 mm
03:44 19.8 °C 8.6 °C 1005.6 hPa OSO 13.9 km/h 24.1 km/h 48.7% 0.0 mm
03:49 19.7 °C 8.7 °C 1005.6 hPa OSO 14 km/h 24.1 km/h 49% 0.0 mm
03:54 19.7 °C 8.7 °C 1005.8 hPa OSO 13.7 km/h 25.9 km/h 49% 0.0 mm
03:59 19.7 °C 8.7 °C 1005.8 hPa Oeste 13.7 km/h 33.3 km/h 49% 0.0 mm
04:04 19.6 °C 9.1 °C 1005.8 hPa ONO 16.6 km/h 33.8 km/h 50.8% 0.0 mm
04:09 19.3 °C 9.5 °C 1006.2 hPa ONO 17.2 km/h 35.9 km/h 53.2% 0.0 mm
04:14 19 °C 9.6 °C 1006.2 hPa ONO 18.6 km/h 35.4 km/h 54.5% 0.0 mm
04:19 18.8 °C 9.9 °C 1006.2 hPa ONO 19 km/h 35.2 km/h 56.2% 0.0 mm
04:24 18.7 °C 10.2 °C 1006.3 hPa ONO 19.6 km/h 35.4 km/h 57.5% 0.0 mm
04:29 18.6 °C 10.6 °C 1006.3 hPa ONO 19.8 km/h 29.6 km/h 59.8% 0.0 mm
04:34 18.5 °C 10.9 °C 1006.3 hPa ONO 16.5 km/h 34.6 km/h 61.4% 0.0 mm
04:39 18.3 °C 11.1 °C 1006.3 hPa ONO 15.6 km/h 35.4 km/h 62.8% 0.0 mm
04:44 18.3 °C 11.1 °C 1006.3 hPa ONO 17.5 km/h 35.4 km/h 63% 0.0 mm
04:49 18.2 °C 11.2 °C 1006.3 hPa ONO 18 km/h 38.9 km/h 63.5% 0.0 mm
04:54 18.1 °C 11.4 °C 1006.4 hPa ONO 18.8 km/h 39.9 km/h 65% 0.0 mm
04:59 17.8 °C 11.5 °C 1006.4 hPa ONO 19 km/h 40.7 km/h 66.8% 0.0 mm
05:04 17.6 °C 11.4 °C 1006.4 hPa ONO 19.9 km/h 32.2 km/h 67% 0.0 mm
05:09 17.5 °C 11.3 °C 1006.6 hPa ONO 20.1 km/h 29.6 km/h 67% 0.0 mm
05:14 17.4 °C 11.1 °C 1006.6 hPa ONO 17.2 km/h 29 km/h 66.4% 0.0 mm
05:19 17.4 °C 10.9 °C 1006.6 hPa ONO 16.4 km/h 27.8 km/h 65.7% 0.0 mm
05:24 17.4 °C 10.6 °C 1007.0 hPa ONO 16.2 km/h 29.6 km/h 64.3% 0.0 mm
05:29 17.4 °C 10.2 °C 1007.0 hPa ONO 16.1 km/h 33.3 km/h 62.5% 0.0 mm
05:34 17.4 °C 10.1 °C 1007.0 hPa ONO 17.6 km/h 33.8 km/h 62% 0.0 mm
05:39 17.3 °C 9.8 °C 1007.2 hPa ONO 18 km/h 34.3 km/h 61.2% 0.0 mm
05:44 17.3 °C 9.7 °C 1007.2 hPa ONO 18.3 km/h 33.8 km/h 61% 0.0 mm
05:49 17.3 °C 9.7 °C 1007.2 hPa ONO 18.4 km/h 30.6 km/h 61% 0.0 mm
05:54 17.3 °C 9.7 °C 1007.5 hPa ONO 16.8 km/h 27.8 km/h 61% 0.0 mm
05:59 17.3 °C 9.7 °C 1007.5 hPa ONO 16.4 km/h 27.4 km/h 61% 0.0 mm
06:04 17.3 °C 9.7 °C 1007.5 hPa Oeste 15.7 km/h 24.1 km/h 61% 0.0 mm
06:09 17.3 °C 9.7 °C 1007.9 hPa Oeste 15.6 km/h 23.7 km/h 61% 0.0 mm
06:14 17.3 °C 10 °C 1007.9 hPa Oeste 14.3 km/h 26.2 km/h 62.2% 0.0 mm
06:19 17.2 °C 10.3 °C 1007.9 hPa OSO 14 km/h 25.7 km/h 64.1% 0.0 mm
06:24 16.9 °C 10.6 °C 1008.2 hPa OSO 11.1 km/h 17.7 km/h 66.2% 0.0 mm
06:29 16.8 °C 10.7 °C 1008.2 hPa SO 10.3 km/h 16.1 km/h 67.3% 0.0 mm
06:34 16.8 °C 10.7 °C 1008.2 hPa SSO 7.6 km/h 13 km/h 67.6% 0.0 mm
06:39 16.8 °C 10.6 °C 1008.2 hPa Sur 6.9 km/h 13.7 km/h 66.9% 0.0 mm
06:44 16.9 °C 10.8 °C 1008.1 hPa Sur 8.1 km/h 14.5 km/h 67% 0.0 mm
06:49 17.1 °C 10.9 °C 1008.1 hPa SSE 8.4 km/h 14.5 km/h 67% 0.0 mm
06:54 17.1 °C 10.9 °C 1008.2 hPa SSO 8.6 km/h 14.8 km/h 66.7% 0.0 mm
06:59 17.1 °C 10.6 °C 1008.2 hPa Sur 8.7 km/h 15.6 km/h 65.8% 0.0 mm
07:04 17.1 °C 10.7 °C 1008.2 hPa SSO 8.7 km/h 16.1 km/h 66% 0.0 mm
07:09 17.1 °C 10.7 °C 1008.3 hPa Sur 8.7 km/h 20.4 km/h 66.2% 0.0 mm
07:14 16.9 °C 10.7 °C 1008.3 hPa SSO 9.7 km/h 20.9 km/h 66.9% 0.0 mm
07:19 16.8 °C 10.5 °C 1008.3 hPa SO 10 km/h 19.3 km/h 66.7% 0.3 mm
07:24 16.7 °C 10.4 °C 1008.6 hPa SSO 10.2 km/h 20.4 km/h 66.1% 0.3 mm
07:29 16.8 °C 10 °C 1008.6 hPa SSO 10.3 km/h 20.9 km/h 64.3% 0.3 mm
07:34 16.9 °C 10.1 °C 1008.6 hPa SSO 10.9 km/h 20.9 km/h 64.2% 0.3 mm
07:39 16.9 °C 10.3 °C 1008.6 hPa SSO 11.1 km/h 16.7 km/h 65% 0.3 mm
07:44 16.9 °C 10.3 °C 1008.6 hPa SSO 10.2 km/h 16.1 km/h 65% 0.3 mm
07:49 16.8 °C 10.2 °C 1008.6 hPa SSO 10 km/h 12.9 km/h 64.9% 0.3 mm
07:54 16.8 °C 10.2 °C 1008.7 hPa SSO 8.7 km/h 11.3 km/h 65% 0.3 mm
07:59 16.8 °C 10.1 °C 1008.7 hPa SSO 8.4 km/h 12.2 km/h 65% 0.3 mm
08:04 16.7 °C 9.9 °C 1008.7 hPa Sur 7.7 km/h 16.7 km/h 64.4% 0.3 mm
08:09 16.7 °C 9.6 °C 1008.9 hPa SSO 7.6 km/h 17.2 km/h 63.1% 0.3 mm
08:14 16.7 °C 9.2 °C 1008.9 hPa SSO 9.7 km/h 18.5 km/h 61.5% 0.3 mm
08:19 16.7 °C 8.8 °C 1008.9 hPa SSO 10.3 km/h 20.9 km/h 59.4% 0.0 mm
08:24 16.8 °C 8.8 °C 1008.9 hPa SSO 11.8 km/h 20.9 km/h 59.2% 0.0 mm
08:29 16.8 °C 8.7 °C 1008.9 hPa SSO 12.2 km/h 24.1 km/h 58.9% 0.0 mm
08:34 16.8 °C 8.5 °C 1008.9 hPa SSO 12.2 km/h 24.1 km/h 58% 0.0 mm
08:39 16.9 °C 8.4 °C 1009.1 hPa SO 12.2 km/h 20.9 km/h 57.2% 0.0 mm
08:44 17.1 °C 8.3 °C 1009.1 hPa SO 10.7 km/h 17.2 km/h 56.6% 0.0 mm
08:49 17.2 °C 8.2 °C 1009.1 hPa OSO 10.3 km/h 18 km/h 55.7% 0.0 mm
08:54 17.3 °C 7.8 °C 1009.6 hPa OSO 9 km/h 19.3 km/h 53.8% 0.0 mm
08:59 17.5 °C 7.4 °C 1009.6 hPa OSO 8.7 km/h 22.5 km/h 51.6% 0.0 mm
09:04 17.7 °C 7.1 °C 1009.6 hPa Oeste 10.7 km/h 28.2 km/h 49.9% 0.0 mm
09:09 17.8 °C 6.9 °C 1009.9 hPa Oeste 11.1 km/h 28.2 km/h 49% 0.0 mm
09:14 17.8 °C 6.9 °C 1009.9 hPa Oeste 13.2 km/h 30.6 km/h 48.7% 0.0 mm
09:19 17.9 °C 6.7 °C 1009.9 hPa Oeste 13.7 km/h 30.6 km/h 48% 0.0 mm
09:24 17.9 °C 6.6 °C 1010.1 hPa Oeste 13.7 km/h 27.8 km/h 47.5% 0.0 mm
09:29 18 °C 6.5 °C 1010.1 hPa Oeste 13.7 km/h 32.3 km/h 46.8% 0.0 mm
09:34 18.1 °C 6.3 °C 1010.1 hPa Oeste 17.9 km/h 37.8 km/h 45.9% 0.0 mm
09:39 18.3 °C 6 °C 1010.1 hPa ONO 19 km/h 37.8 km/h 44.6% 0.0 mm
09:44 18.3 °C 5.9 °C 1010.1 hPa Oeste 19.6 km/h 37 km/h 44% 0.0 mm
09:49 18.4 °C 5.7 °C 1010.1 hPa Oeste 19.8 km/h 37 km/h 43.3% 0.0 mm
09:54 18.4 °C 5.4 °C 1010.2 hPa Oeste 21.6 km/h 40.7 km/h 42.5% 0.0 mm
09:59 18.4 °C 5.5 °C 1010.2 hPa Oeste 22.1 km/h 40.7 km/h 42.6% 0.0 mm
10:04 18.6 °C 5.8 °C 1010.2 hPa Oeste 23.1 km/h 40.2 km/h 43.1% 0.0 mm
10:09 18.7 °C 5.8 °C 1010.2 hPa Oeste 23.3 km/h 33.3 km/h 42.9% 0.0 mm
10:14 18.7 °C 5.6 °C 1010.2 hPa Oeste 19.4 km/h 38.1 km/h 42.3% 0.0 mm
10:19 18.7 °C 5.5 °C 1010.2 hPa Oeste 18.4 km/h 38.9 km/h 42% 0.0 mm
10:24 18.8 °C 5.5 °C 1010.2 hPa Oeste 18.9 km/h 40.7 km/h 41.6% 0.0 mm
10:29 18.7 °C 5.2 °C 1010.2 hPa Oeste 19 km/h 44.4 km/h 41% 0.0 mm
10:34 18.7 °C 5.2 °C 1010.2 hPa Oeste 23.3 km/h 45.1 km/h 41% 0.0 mm
10:39 18.7 °C 5.1 °C 1010.4 hPa Oeste 24.5 km/h 39.6 km/h 40.8% 0.0 mm
10:44 18.7 °C 4.9 °C 1010.4 hPa Oeste 23.8 km/h 40.7 km/h 40.2% 0.0 mm
10:49 18.7 °C 5 °C 1010.4 hPa Oeste 23.7 km/h 40.2 km/h 40.4% 0.0 mm
10:54 18.9 °C 4.8 °C 1010.4 hPa ONO 20.9 km/h 34.6 km/h 39.5% 0.0 mm
10:59 18.9 °C 4.5 °C 1010.4 hPa Oeste 20.1 km/h 35.4 km/h 38.8% 0.0 mm
11:04 18.9 °C 4.6 °C 1010.4 hPa Oeste 19.9 km/h 33.8 km/h 39% 0.0 mm
11:09 19 °C 4.7 °C 1010.5 hPa Oeste 19.8 km/h 33.5 km/h 38.9% 0.0 mm
11:14 19 °C 4.8 °C 1010.5 hPa Oeste 18.7 km/h 33.8 km/h 39.2% 0.0 mm
11:19 19 °C 4.7 °C 1010.5 hPa OSO 18.4 km/h 37 km/h 38.9% 0.0 mm
11:24 19.1 °C 4.3 °C 1010.5 hPa Oeste 20.4 km/h 37 km/h 37.7% 0.0 mm
11:29 19.2 °C 4.2 °C 1010.5 hPa Oeste 20.9 km/h 35.4 km/h 37.1% 0.0 mm
11:34 19.3 °C 4.2 °C 1010.5 hPa Oeste 19.4 km/h 35.4 km/h 37% 0.0 mm
11:39 19.3 °C 3.9 °C 1010.5 hPa Oeste 19 km/h 39.6 km/h 36.1% 0.0 mm
11:44 19.2 °C 3.8 °C 1010.4 hPa Oeste 20.5 km/h 47.8 km/h 36% 0.0 mm
11:49 19.1 °C 3.9 °C 1010.4 hPa Oeste 20.9 km/h 48.3 km/h 36.6% 0.0 mm
11:54 19.2 °C 3.8 °C 1010.4 hPa Oeste 23.7 km/h 46.3 km/h 36.2% 0.0 mm
11:59 19.1 °C 3.9 °C 1010.4 hPa Oeste 24.5 km/h 46.7 km/h 36.6% 0.0 mm
12:04 19.2 °C 4.1 °C 1010.4 hPa Oeste 24.5 km/h 44.4 km/h 37% 0.0 mm
12:09 19.3 °C 4 °C 1010.4 hPa Oeste 24.5 km/h 45.1 km/h 36.4% 0.0 mm
12:14 19.3 °C 4.2 °C 1010.3 hPa Oeste 22.3 km/h 41.8 km/h 37% 0.0 mm
12:19 19.4 °C 4.3 °C 1010.3 hPa Oeste 21.7 km/h 40.7 km/h 37% 0.0 mm
12:24 19.4 °C 4.2 °C 1010.3 hPa ONO 19.6 km/h 40.2 km/h 36.8% 0.0 mm
12:29 19.4 °C 4 °C 1010.2 hPa OSO 19 km/h 40.7 km/h 36% 0.0 mm
12:34 19.5 °C 4 °C 1010.2 hPa Oeste 20.5 km/h 40.7 km/h 36% 0.0 mm
12:39 19.5 °C 4.3 °C 1010.2 hPa OSO 20.9 km/h 40.2 km/h 36.8% 0.0 mm
12:44 19.7 °C 4.3 °C 1009.9 hPa Oeste 18.9 km/h 40.7 km/h 36.3% 0.0 mm
12:49 19.5 °C 4 °C 1009.9 hPa Oeste 18.4 km/h 40.7 km/h 36% 0.0 mm
12:54 19.7 °C 4.2 °C 1009.9 hPa ONO 23.3 km/h 43.1 km/h 36% 0.0 mm
12:59 19.7 °C 4.2 °C 1009.6 hPa ONO 24.5 km/h 43.9 km/h 36% 0.0 mm
13:04 19.7 °C 4.2 °C 1009.6 hPa ONO 22.2 km/h 43.5 km/h 36% 0.0 mm
13:09 19.8 °C 4.3 °C 1009.6 hPa ONO 21.7 km/h 40.2 km/h 36% 0.0 mm
13:14 19.9 °C 4.1 °C 1009.4 hPa ONO 20.2 km/h 38.9 km/h 35.1% 0.0 mm
13:19 19.9 °C 4 °C 1009.4 hPa Oeste 19.8 km/h 38.6 km/h 35% 0.0 mm
13:24 19.8 °C 4.2 °C 1009.4 hPa Oeste 21.6 km/h 33.8 km/h 35.9% 0.0 mm
13:29 19.9 °C 3.9 °C 1009.4 hPa Oeste 22.1 km/h 40.7 km/h 34.9% 0.0 mm
13:34 19.8 °C 3.9 °C 1009.4 hPa Oeste 21.8 km/h 40.2 km/h 34.9% 0.0 mm
13:39 19.9 °C 4 °C 1009.4 hPa Oeste 21.7 km/h 38.6 km/h 35% 0.0 mm
13:44 20 °C 4.1 °C 1009.3 hPa Oeste 21.1 km/h 37 km/h 35.1% 0.0 mm
13:49 20.1 °C 4 °C 1009.3 hPa Oeste 20.9 km/h 41.2 km/h 34.6% 0.0 mm
13:54 20.1 °C 3.6 °C 1009.3 hPa Oeste 20.3 km/h 41.8 km/h 33.6% 0.0 mm
13:59 20.1 °C 3.6 °C 1009.2 hPa Oeste 20.1 km/h 43.1 km/h 33.7% 0.0 mm
14:04 20.2 °C 3.7 °C 1009.2 hPa ONO 20.8 km/h 43.5 km/h 33.7% 0.0 mm
14:09 20.2 °C 3.6 °C 1009.2 hPa ONO 20.9 km/h 38.9 km/h 33.4% 0.0 mm
14:14 20.1 °C 3.4 °C 1009.2 hPa Oeste 20.3 km/h 40.7 km/h 33.1% 0.0 mm
14:19 19.9 °C 3.4 °C 1009.2 hPa Oeste 20.1 km/h 40.2 km/h 33.5% 0.0 mm
14:24 20.1 °C 3.6 °C 1009.2 hPa Oeste 21.4 km/h 37 km/h 33.7% 0.0 mm
14:29 20.2 °C 3.7 °C 1009.2 hPa Oeste 21.7 km/h 39.6 km/h 33.6% 0.0 mm
14:34 20.1 °C 3.5 °C 1009.2 hPa ONO 18.8 km/h 40.2 km/h 33.5% 0.0 mm
14:39 20.1 °C 3.7 °C 1009.2 hPa Oeste 18 km/h 38.6 km/h 34% 0.0 mm
14:44 20.1 °C 3.7 °C 1009.1 hPa Oeste 20.3 km/h 42.6 km/h 34% 0.0 mm
14:49 20.2 °C 3.6 °C 1009.1 hPa Oeste 20.9 km/h 41.8 km/h 33.7% 0.0 mm
14:54 20.3 °C 3.5 °C 1009.1 hPa OSO 20.9 km/h 40.7 km/h 33.2% 0.0 mm
14:59 20.4 °C 3.5 °C 1009.1 hPa Oeste 20.9 km/h 40.7 km/h 33% 0.0 mm
15:04 20.3 °C 3.5 °C 1009.1 hPa Oeste 20 km/h 41.8 km/h 33% 0.0 mm
15:09 20.3 °C 3.4 °C 1009.3 hPa Oeste 19.8 km/h 46.3 km/h 32.9% 0.0 mm
15:14 20.2 °C 3.4 °C 1009.3 hPa OSO 19.8 km/h 46.7 km/h 33% 0.0 mm
15:19 20.4 °C 3.6 °C 1009.3 hPa Oeste 19.8 km/h 33.8 km/h 33% 0.0 mm
15:24 20.6 °C 3.7 °C 1009.3 hPa Oeste 17.8 km/h 35.2 km/h 33% 0.0 mm
15:29 20.4 °C 3.6 °C 1009.3 hPa OSO 17.2 km/h 38.9 km/h 33% 0.0 mm
15:34 20.4 °C 3.8 °C 1009.3 hPa OSO 20.1 km/h 38.9 km/h 33.4% 0.0 mm
15:39 20.3 °C 3.8 °C 1009.4 hPa OSO 20.9 km/h 41.8 km/h 33.6% 0.0 mm
15:44 20.3 °C 3.9 °C 1009.4 hPa OSO 20.9 km/h 41.8 km/h 34% 0.0 mm
15:49 20.3 °C 3.9 °C 1009.4 hPa OSO 20.9 km/h 37 km/h 34% 0.0 mm
15:54 20.4 °C 4 °C 1009.5 hPa Oeste 19.4 km/h 35.2 km/h 34% 0.0 mm
15:59 20.4 °C 4 °C 1009.5 hPa OSO 19 km/h 40.7 km/h 34% 0.0 mm
16:04 20.4 °C 4 °C 1009.5 hPa OSO 19.9 km/h 40.2 km/h 34.1% 0.0 mm
16:09 20.4 °C 4 °C 1009.7 hPa Oeste 20.1 km/h 42.6 km/h 34% 0.0 mm
16:14 20.3 °C 3.9 °C 1009.7 hPa Oeste 21.7 km/h 44.4 km/h 34% 0.0 mm
16:19 20.2 °C 3.8 °C 1009.7 hPa Oeste 22.1 km/h 45.1 km/h 34% 0.0 mm
16:24 20.2 °C 4.1 °C 1009.8 hPa OSO 23.1 km/h 41.8 km/h 34.6% 0.0 mm
16:29 20.3 °C 4.3 °C 1009.8 hPa Oeste 23.3 km/h 38.9 km/h 35% 0.0 mm
16:34 20.3 °C 4.3 °C 1009.8 hPa OSO 19.5 km/h 44.4 km/h 35% 0.0 mm
16:39 20.2 °C 4.2 °C 1009.8 hPa OSO 18.4 km/h 45.1 km/h 35% 0.0 mm
16:44 20.1 °C 4.2 °C 1009.8 hPa Oeste 18.4 km/h 33.8 km/h 35% 0.0 mm
16:49 20 °C 4.1 °C 1009.8 hPa Oeste 18.4 km/h 32.2 km/h 35.1% 0.0 mm
16:54 20 °C 4.2 °C 1009.8 hPa OSO 18.4 km/h 30.6 km/h 35.3% 0.0 mm
16:59 20.1 °C 4.2 °C 1009.7 hPa OSO 18.4 km/h 33.5 km/h 35% 0.0 mm
17:04 20.1 °C 4.2 °C 1009.7 hPa OSO 18.1 km/h 35.2 km/h 35% 0.0 mm
17:09 20 °C 4.3 °C 1009.7 hPa OSO 18 km/h 35.4 km/h 35.5% 0.0 mm
17:14 19.9 °C 4.4 °C 1009.6 hPa Oeste 15.5 km/h 22.5 km/h 36% 0.0 mm
17:19 19.8 °C 4.3 °C 1009.6 hPa OSO 14.8 km/h 29.6 km/h 36.1% 0.0 mm
17:24 19.8 °C 4.3 °C 1009.8 hPa OSO 12.5 km/h 32.3 km/h 36% 0.0 mm
17:29 19.7 °C 4.6 °C 1009.8 hPa Oeste 11.9 km/h 34.6 km/h 36.9% 0.0 mm
17:34 19.7 °C 4.6 °C 1009.8 hPa Oeste 16.1 km/h 35.4 km/h 37% 0.0 mm
17:39 19.6 °C 4.6 °C 1010.2 hPa Oeste 17.2 km/h 27.4 km/h 37.3% 0.0 mm
17:44 19.6 °C 4.9 °C 1010.2 hPa OSO 12.9 km/h 25.9 km/h 38% 0.0 mm
17:49 19.4 °C 4.7 °C 1010.2 hPa Oeste 11.9 km/h 26.2 km/h 38% 0.0 mm
17:54 19.4 °C 4.7 °C 1010.2 hPa OSO 13.6 km/h 27 km/h 38% 0.0 mm
17:59 19.3 °C 5 °C 1010.2 hPa Oeste 14 km/h 29.6 km/h 39% 0.0 mm
18:04 19.2 °C 4.9 °C 1010.2 hPa OSO 14 km/h 29 km/h 39% 0.0 mm
18:09 19.1 °C 4.8 °C 1010.3 hPa OSO 14 km/h 37 km/h 39% 0.0 mm
18:14 19 °C 4.8 °C 1010.3 hPa OSO 14 km/h 37 km/h 39.3% 0.0 mm
18:19 18.9 °C 5 °C 1010.3 hPa OSO 14 km/h 24.5 km/h 40% 0.0 mm
18:24 18.8 °C 4.9 °C 1010.4 hPa OSO 12.6 km/h 24.1 km/h 40.2% 0.0 mm
18:29 18.7 °C 5.2 °C 1010.4 hPa OSO 12.2 km/h 22.2 km/h 41% 0.0 mm
18:34 18.7 °C 5.2 °C 1010.4 hPa SO 11.3 km/h 22.5 km/h 41% 0.0 mm
18:39 18.7 °C 5.2 °C 1010.7 hPa SO 11.1 km/h 20.4 km/h 41% 0.0 mm
18:44 18.6 °C 5.1 °C 1010.7 hPa SO 10.2 km/h 20.9 km/h 41% 0.0 mm
18:49 18.6 °C 5.1 °C 1010.7 hPa SO 10 km/h 14.8 km/h 41.2% 0.0 mm
18:54 18.5 °C 5.3 °C 1011.0 hPa SO 8.7 km/h 18.5 km/h 42% 0.0 mm
18:59 18.3 °C 5.2 °C 1011.0 hPa SO 8.4 km/h 22.2 km/h 42% 0.0 mm
19:04 18.3 °C 5.2 °C 1011.0 hPa SO 10 km/h 24.5 km/h 42% 0.0 mm
19:09 18.3 °C 5.2 °C 1011.2 hPa SO 10.3 km/h 24.1 km/h 42% 0.0 mm
19:14 18.3 °C 5.2 °C 1011.2 hPa OSO 13 km/h 25.9 km/h 42% 0.0 mm
19:19 18.3 °C 5.2 °C 1011.2 hPa OSO 13.7 km/h 26.2 km/h 42% 0.0 mm
19:24 18.2 °C 5.1 °C 1011.4 hPa OSO 13.9 km/h 25.9 km/h 42% 0.0 mm
19:29 18.1 °C 5.3 °C 1011.4 hPa OSO 14 km/h 25.7 km/h 42.8% 0.0 mm
19:34 18 °C 5.2 °C 1011.4 hPa OSO 11.1 km/h 19.3 km/h 43% 0.0 mm
19:39 17.9 °C 5.1 °C 1011.4 hPa OSO 10.3 km/h 17.7 km/h 43% 0.0 mm
19:44 17.9 °C 5.1 °C 1011.4 hPa OSO 7.6 km/h 12.9 km/h 43% 0.0 mm
19:49 17.8 °C 5.1 °C 1011.4 hPa SO 6.9 km/h 15.6 km/h 43% 0.0 mm
19:54 17.8 °C 5.3 °C 1011.5 hPa SO 8.1 km/h 16.1 km/h 43.7% 0.0 mm
19:59 17.7 °C 5.3 °C 1011.5 hPa SO 8.4 km/h 14.8 km/h 44% 0.0 mm
20:04 17.7 °C 5.2 °C 1011.5 hPa SO 8.4 km/h 14.5 km/h 44% 0.0 mm
20:09 17.6 °C 5.2 °C 1011.7 hPa SO 8.4 km/h 12.9 km/h 44% 0.0 mm
20:14 17.6 °C 5.2 °C 1011.7 hPa SO 7.2 km/h 11.9 km/h 44% 0.0 mm
20:19 17.5 °C 5.1 °C 1011.7 hPa SO 6.9 km/h 13 km/h 44% 0.0 mm
20:24 17.5 °C 5.1 °C 1011.8 hPa SO 8.1 km/h 16.7 km/h 44% 0.0 mm
20:29 17.4 °C 5 °C 1011.8 hPa SO 8.4 km/h 16.7 km/h 44% 0.0 mm
20:34 17.4 °C 5 °C 1011.8 hPa SO 9.6 km/h 16.1 km/h 44% 0.0 mm
20:39 17.4 °C 5 °C 1011.8 hPa SO 10 km/h 15.6 km/h 44% 0.0 mm
20:44 17.4 °C 5 °C 1011.8 hPa SO 10 km/h 16.1 km/h 44% 0.0 mm
20:49 17.4 °C 5 °C 1011.8 hPa SO 10 km/h 16.7 km/h 44% 0.0 mm
20:54 17.4 °C 4.9 °C 1011.8 hPa SO 10 km/h 16.7 km/h 43.8% 0.0 mm
20:59 17.4 °C 4.7 °C 1011.8 hPa SO 10 km/h 20.9 km/h 43% 0.0 mm
21:04 17.6 °C 4.9 °C 1011.8 hPa SO 10.9 km/h 20.9 km/h 43% 0.0 mm
21:09 17.6 °C 4.9 °C 1011.9 hPa SO 11.1 km/h 17.7 km/h 43% 0.0 mm
21:14 17.5 °C 4.8 °C 1011.9 hPa SO 10.2 km/h 18 km/h 43% 0.0 mm
21:19 17.6 °C 4.8 °C 1011.9 hPa SO 10 km/h 19.3 km/h 43% 0.0 mm
21:24 17.5 °C 4.8 °C 1012.0 hPa SO 10.2 km/h 19.3 km/h 43% 0.0 mm
21:29 17.5 °C 4.8 °C 1012.0 hPa SO 10.3 km/h 19.3 km/h 43% 0.0 mm
21:34 17.6 °C 4.8 °C 1012.0 hPa OSO 10.1 km/h 16.1 km/h 43% 0.0 mm
21:39 17.4 °C 4.7 °C 1012.3 hPa OSO 10 km/h 16.1 km/h 43% 0.0 mm
21:44 17.3 °C 4.9 °C 1012.3 hPa OSO 9 km/h 14.8 km/h 43.7% 0.0 mm
21:49 17.2 °C 4.9 °C 1012.3 hPa OSO 8.7 km/h 14.8 km/h 44% 0.0 mm
21:54 17.1 °C 4.8 °C 1012.6 hPa OSO 7.8 km/h 14.8 km/h 44% 0.0 mm
21:59 17 °C 4.8 °C 1012.6 hPa OSO 7.6 km/h 16.7 km/h 44.4% 0.0 mm
22:04 16.9 °C 4.9 °C 1012.6 hPa OSO 9.5 km/h 16.7 km/h 45% 0.0 mm
22:09 16.8 °C 4.8 °C 1012.7 hPa SO 10 km/h 16.7 km/h 45% 0.0 mm
22:14 16.8 °C 4.8 °C 1012.7 hPa OSO 9.6 km/h 16.7 km/h 45% 0.0 mm
22:19 16.8 °C 4.8 °C 1012.7 hPa OSO 9.5 km/h 16.7 km/h 45% 0.0 mm
22:24 16.8 °C 4.8 °C 1012.7 hPa OSO 9.5 km/h 16.7 km/h 45% 0.0 mm
22:29 16.7 °C 4.7 °C 1012.7 hPa OSO 9.5 km/h 16.7 km/h 45% 0.0 mm
22:34 16.7 °C 4.7 °C 1012.7 hPa OSO 9.9 km/h 18 km/h 45% 0.0 mm
22:39 16.7 °C 4.7 °C 1012.7 hPa SO 10 km/h 19.3 km/h 45% 0.0 mm
22:44 16.7 °C 4.7 °C 1012.6 hPa OSO 10 km/h 19.3 km/h 45% 0.0 mm
22:49 16.7 °C 4.7 °C 1012.6 hPa OSO 10 km/h 19 km/h 44.9% 0.0 mm
22:54 16.8 °C 4.4 °C 1012.8 hPa SO 10 km/h 19.3 km/h 44.1% 0.0 mm
22:59 16.8 °C 4.4 °C 1012.8 hPa SO 10 km/h 16.1 km/h 44% 0.0 mm
23:04 16.7 °C 4.5 °C 1012.8 hPa OSO 8.9 km/h 14.5 km/h 44.3% 0.0 mm
23:09 16.7 °C 4.7 °C 1012.8 hPa ONO 8.7 km/h 12.2 km/h 44.9% 0.0 mm
23:14 16.3 °C 4.9 °C 1012.8 hPa NNO 6.9 km/h 14.8 km/h 46.8% 0.0 mm
23:19 15.7 °C 5.1 °C 1012.8 hPa NO 6.5 km/h 14.5 km/h 49.2% 0.0 mm
23:24 15.3 °C 5 °C 1013.0 hPa Oeste 6.8 km/h 11.3 km/h 50.2% 0.0 mm
23:29 15.2 °C 5.2 °C 1013.0 hPa Oeste 6.9 km/h 11.3 km/h 51% 0.0 mm
23:34 15.2 °C 5.1 °C 1013.0 hPa OSO 5.4 km/h 9.7 km/h 51% 0.0 mm
23:39 15.2 °C 5.1 °C 1013.0 hPa Sur 5 km/h 8 km/h 51% 0.0 mm
23:44 15.3 °C 5.2 °C 1012.8 hPa Sur 4.7 km/h 8 km/h 51% 0.0 mm
23:49 15.3 °C 5.4 °C 1012.8 hPa SSE 4.7 km/h 12.2 km/h 51.8% 0.0 mm
23:54 14.9 °C 5.3 °C 1012.9 hPa SSE 6.1 km/h 13.7 km/h 52.7% 0.0 mm
23:59 14.5 °C 5.3 °C 1012.9 hPa Sur 6.5 km/h 14.5 km/h 54% 0.0 mm
Murcia-Puente Tocinos, Espa?a
Compliments of Weather Underground - 3.25 mb

La estación de MeteoMurcia.com, publica sus datos en los siguientes proyectos:

Weather Underground PWS IMURCIAP2 Meteoclimatic www.awekas.at

W3Counter
Web Analytics